sensor_id;sensor_type;location;lat;lon;timestamp;temperature;humidity
9437;DHT22;4757;59.334;18.034;2024-02-23T00:02:20;4.10;99.90
9437;DHT22;4757;59.334;18.034;2024-02-23T00:04:47;4.10;99.90
9437;DHT22;4757;59.334;18.034;2024-02-23T00:07:14;4.10;99.90
9437;DHT22;4757;59.334;18.034;2024-02-23T00:09:41;4.10;99.90
9437;DHT22;4757;59.334;18.034;2024-02-23T00:12:08;4.20;99.90
9437;DHT22;4757;59.334;18.034;2024-02-23T00:14:35;4.20;99.90
9437;DHT22;4757;59.334;18.034;2024-02-23T00:17:03;4.20;99.90
9437;DHT22;4757;59.334;18.034;2024-02-23T00:19:31;4.20;99.90
9437;DHT22;4757;59.334;18.034;2024-02-23T00:21:58;4.20;99.90
9437;DHT22;4757;59.334;18.034;2024-02-23T00:24:31;4.20;99.90
9437;DHT22;4757;59.334;18.034;2024-02-23T00:26:58;4.30;99.90
9437;DHT22;4757;59.334;18.034;2024-02-23T00:29:25;4.30;99.90
9437;DHT22;4757;59.334;18.034;2024-02-23T00:31:52;4.30;99.90
9437;DHT22;4757;59.334;18.034;2024-02-23T00:34:19;4.30;99.90
9437;DHT22;4757;59.334;18.034;2024-02-23T00:36:47;4.30;99.90
9437;DHT22;4757;59.334;18.034;2024-02-23T00:39:15;4.20;99.90
9437;DHT22;4757;59.334;18.034;2024-02-23T00:41:42;4.30;99.90
9437;DHT22;4757;59.334;18.034;2024-02-23T00:44:09;4.30;99.90
9437;DHT22;4757;59.334;18.034;2024-02-23T00:46:36;4.30;99.90
9437;DHT22;4757;59.334;18.034;2024-02-23T00:49:05;4.20;99.90
9437;DHT22;4757;59.334;18.034;2024-02-23T00:51:32;4.30;99.90
9437;DHT22;4757;59.334;18.034;2024-02-23T00:54:00;4.30;99.90
9437;DHT22;4757;59.334;18.034;2024-02-23T00:56:27;4.30;99.90
9437;DHT22;4757;59.334;18.034;2024-02-23T00:59:06;4.30;99.90
9437;DHT22;4757;59.334;18.034;2024-02-23T01:01:33;4.30;99.90
9437;DHT22;4757;59.334;18.034;2024-02-23T01:04:01;4.30;99.90
9437;DHT22;4757;59.334;18.034;2024-02-23T01:06:28;4.20;99.90
9437;DHT22;4757;59.334;18.034;2024-02-23T01:08:55;4.20;99.90
9437;DHT22;4757;59.334;18.034;2024-02-23T01:11:22;4.20;99.90
9437;DHT22;4757;59.334;18.034;2024-02-23T01:13:49;4.10;99.90
9437;DHT22;4757;59.334;18.034;2024-02-23T01:16:17;4.10;99.90
9437;DHT22;4757;59.334;18.034;2024-02-23T01:18:44;4.20;99.90
9437;DHT22;4757;59.334;18.034;2024-02-23T01:21:11;4.10;99.90
9437;DHT22;4757;59.334;18.034;2024-02-23T01:23:38;4.10;99.90
9437;DHT22;4757;59.334;18.034;2024-02-23T01:26:05;4.10;99.90
9437;DHT22;4757;59.334;18.034;2024-02-23T01:28:32;4.10;99.90
9437;DHT22;4757;59.334;18.034;2024-02-23T01:30:59;4.10;99.90
9437;DHT22;4757;59.334;18.034;2024-02-23T01:33:27;4.10;99.90
9437;DHT22;4757;59.334;18.034;2024-02-23T01:35:55;4.10;99.90
9437;DHT22;4757;59.334;18.034;2024-02-23T01:38:24;4.10;99.90
9437;DHT22;4757;59.334;18.034;2024-02-23T01:40:52;4.10;99.90
9437;DHT22;4757;59.334;18.034;2024-02-23T01:43:19;4.10;99.90
9437;DHT22;4757;59.334;18.034;2024-02-23T01:45:46;4.10;99.90
9437;DHT22;4757;59.334;18.034;2024-02-23T01:48:13;4.10;99.90
9437;DHT22;4757;59.334;18.034;2024-02-23T01:50:40;4.10;99.90
9437;DHT22;4757;59.334;18.034;2024-02-23T01:53:07;4.10;99.90
9437;DHT22;4757;59.334;18.034;2024-02-23T01:55:37;4.10;99.90
9437;DHT22;4757;59.334;18.034;2024-02-23T01:58:05;4.10;99.90
9437;DHT22;4757;59.334;18.034;2024-02-23T02:00:35;4.20;99.90
9437;DHT22;4757;59.334;18.034;2024-02-23T02:03:03;4.10;99.90
9437;DHT22;4757;59.334;18.034;2024-02-23T02:05:31;4.10;99.90
9437;DHT22;4757;59.334;18.034;2024-02-23T02:07:59;4.10;99.90
9437;DHT22;4757;59.334;18.034;2024-02-23T02:10:27;4.10;99.90
9437;DHT22;4757;59.334;18.034;2024-02-23T02:12:54;4.10;99.90
9437;DHT22;4757;59.334;18.034;2024-02-23T02:15:21;4.10;99.90
9437;DHT22;4757;59.334;18.034;2024-02-23T02:17:49;4.20;99.90
9437;DHT22;4757;59.334;18.034;2024-02-23T02:20:18;4.10;99.90
9437;DHT22;4757;59.334;18.034;2024-02-23T02:22:46;4.20;99.90
9437;DHT22;4757;59.334;18.034;2024-02-23T02:25:14;4.20;99.90
9437;DHT22;4757;59.334;18.034;2024-02-23T02:27:42;4.20;99.90
9437;DHT22;4757;59.334;18.034;2024-02-23T02:30:13;4.20;99.90
9437;DHT22;4757;59.334;18.034;2024-02-23T02:32:40;4.20;99.90
9437;DHT22;4757;59.334;18.034;2024-02-23T02:35:10;4.20;99.90
9437;DHT22;4757;59.334;18.034;2024-02-23T02:37:37;4.20;99.90
9437;DHT22;4757;59.334;18.034;2024-02-23T02:40:08;4.20;99.90
9437;DHT22;4757;59.334;18.034;2024-02-23T02:42:35;4.20;99.90
9437;DHT22;4757;59.334;18.034;2024-02-23T02:45:02;4.20;99.90
9437;DHT22;4757;59.334;18.034;2024-02-23T02:47:30;4.20;99.90
9437;DHT22;4757;59.334;18.034;2024-02-23T02:49:57;4.30;99.90
9437;DHT22;4757;59.334;18.034;2024-02-23T02:52:24;4.30;99.90
9437;DHT22;4757;59.334;18.034;2024-02-23T02:54:51;4.30;99.90
9437;DHT22;4757;59.334;18.034;2024-02-23T02:57:18;4.30;99.90
9437;DHT22;4757;59.334;18.034;2024-02-23T02:59:45;4.20;99.90
9437;DHT22;4757;59.334;18.034;2024-02-23T03:02:13;4.20;99.90
9437;DHT22;4757;59.334;18.034;2024-02-23T03:04:49;4.30;99.90
9437;DHT22;4757;59.334;18.034;2024-02-23T03:07:17;4.30;99.90
9437;DHT22;4757;59.334;18.034;2024-02-23T03:09:44;4.30;99.90
9437;DHT22;4757;59.334;18.034;2024-02-23T03:12:11;4.20;99.90
9437;DHT22;4757;59.334;18.034;2024-02-23T03:14:39;4.20;99.90
9437;DHT22;4757;59.334;18.034;2024-02-23T03:17:07;4.30;99.90
9437;DHT22;4757;59.334;18.034;2024-02-23T03:19:37;4.30;99.90
9437;DHT22;4757;59.334;18.034;2024-02-23T03:22:05;4.30;99.90
9437;DHT22;4757;59.334;18.034;2024-02-23T03:24:32;4.30;99.90
9437;DHT22;4757;59.334;18.034;2024-02-23T03:26:59;4.30;99.90
9437;DHT22;4757;59.334;18.034;2024-02-23T03:29:27;4.20;99.90
9437;DHT22;4757;59.334;18.034;2024-02-23T03:31:57;4.30;99.90
9437;DHT22;4757;59.334;18.034;2024-02-23T03:34:25;4.30;99.90
9437;DHT22;4757;59.334;18.034;2024-02-23T03:36:52;4.30;99.90
9437;DHT22;4757;59.334;18.034;2024-02-23T03:39:19;4.30;99.90
9437;DHT22;4757;59.334;18.034;2024-02-23T03:41:46;4.30;99.90
9437;DHT22;4757;59.334;18.034;2024-02-23T03:44:13;4.30;99.90
9437;DHT22;4757;59.334;18.034;2024-02-23T03:46:40;4.30;99.90
9437;DHT22;4757;59.334;18.034;2024-02-23T03:49:07;4.30;99.90
9437;DHT22;4757;59.334;18.034;2024-02-23T03:51:35;4.30;99.90
9437;DHT22;4757;59.334;18.034;2024-02-23T03:54:06;4.30;99.90
9437;DHT22;4757;59.334;18.034;2024-02-23T03:56:40;4.30;99.90
9437;DHT22;4757;59.334;18.034;2024-02-23T03:59:09;4.40;99.90
9437;DHT22;4757;59.334;18.034;2024-02-23T04:01:37;4.40;99.90
9437;DHT22;4757;59.334;18.034;2024-02-23T04:04:05;4.40;99.90
9437;DHT22;4757;59.334;18.034;2024-02-23T04:06:33;4.40;99.90
9437;DHT22;4757;59.334;18.034;2024-02-23T04:09:01;4.40;99.90
9437;DHT22;4757;59.334;18.034;2024-02-23T04:11:28;4.40;99.90
9437;DHT22;4757;59.334;18.034;2024-02-23T04:13:55;4.40;99.90
9437;DHT22;4757;59.334;18.034;2024-02-23T04:16:23;4.40;99.90
9437;DHT22;4757;59.334;18.034;2024-02-23T04:18:52;4.40;99.90
9437;DHT22;4757;59.334;18.034;2024-02-23T04:21:19;4.50;99.90
9437;DHT22;4757;59.334;18.034;2024-02-23T04:23:47;4.50;99.90
9437;DHT22;4757;59.334;18.034;2024-02-23T04:26:14;4.40;99.90
9437;DHT22;4757;59.334;18.034;2024-02-23T04:28:41;4.40;99.90
9437;DHT22;4757;59.334;18.034;2024-02-23T04:31:09;4.50;99.90
9437;DHT22;4757;59.334;18.034;2024-02-23T04:33:37;4.40;99.90
9437;DHT22;4757;59.334;18.034;2024-02-23T04:36:05;4.50;99.90
9437;DHT22;4757;59.334;18.034;2024-02-23T04:38:32;3.20;99.90
9437;DHT22;4757;59.334;18.034;2024-02-23T04:41:03;4.40;99.90
9437;DHT22;4757;59.334;18.034;2024-02-23T04:43:34;4.40;99.90
9437;DHT22;4757;59.334;18.034;2024-02-23T04:46:01;4.40;99.90
9437;DHT22;4757;59.334;18.034;2024-02-23T04:48:28;4.40;99.90
9437;DHT22;4757;59.334;18.034;2024-02-23T04:50:58;4.40;99.90
9437;DHT22;4757;59.334;18.034;2024-02-23T04:53:25;4.40;99.90
9437;DHT22;4757;59.334;18.034;2024-02-23T04:55:52;4.40;99.90
9437;DHT22;4757;59.334;18.034;2024-02-23T04:58:19;4.40;99.90
9437;DHT22;4757;59.334;18.034;2024-02-23T05:00:47;4.40;99.90
9437;DHT22;4757;59.334;18.034;2024-02-23T05:03:14;4.40;99.90
9437;DHT22;4757;59.334;18.034;2024-02-23T05:05:43;4.40;99.90
9437;DHT22;4757;59.334;18.034;2024-02-23T05:08:10;4.40;99.90
9437;DHT22;4757;59.334;18.034;2024-02-23T05:10:37;4.40;99.90
9437;DHT22;4757;59.334;18.034;2024-02-23T05:13:04;4.40;99.90
9437;DHT22;4757;59.334;18.034;2024-02-23T05:15:31;4.40;99.90
9437;DHT22;4757;59.334;18.034;2024-02-23T05:17:58;4.40;99.90
9437;DHT22;4757;59.334;18.034;2024-02-23T05:20:25;4.50;99.90
9437;DHT22;4757;59.334;18.034;2024-02-23T05:22:52;4.40;99.90
9437;DHT22;4757;59.334;18.034;2024-02-23T05:25:19;4.40;99.90
9437;DHT22;4757;59.334;18.034;2024-02-23T05:27:46;4.40;99.90
9437;DHT22;4757;59.334;18.034;2024-02-23T05:30:14;4.50;99.90
9437;DHT22;4757;59.334;18.034;2024-02-23T05:32:41;4.50;99.90
9437;DHT22;4757;59.334;18.034;2024-02-23T05:35:08;4.40;99.90
9437;DHT22;4757;59.334;18.034;2024-02-23T05:37:36;4.50;99.90
9437;DHT22;4757;59.334;18.034;2024-02-23T05:40:04;4.60;99.90
9437;DHT22;4757;59.334;18.034;2024-02-23T05:42:37;4.60;99.90
9437;DHT22;4757;59.334;18.034;2024-02-23T05:45:07;4.70;99.90
9437;DHT22;4757;59.334;18.034;2024-02-23T05:47:38;4.80;99.90
9437;DHT22;4757;59.334;18.034;2024-02-23T05:50:09;4.80;99.90
9437;DHT22;4757;59.334;18.034;2024-02-23T05:52:36;4.80;99.90
9437;DHT22;4757;59.334;18.034;2024-02-23T05:55:04;4.90;99.90
9437;DHT22;4757;59.334;18.034;2024-02-23T05:57:31;4.90;99.90
9437;DHT22;4757;59.334;18.034;2024-02-23T05:59:58;4.90;99.90
9437;DHT22;4757;59.334;18.034;2024-02-23T06:02:25;4.90;99.90
9437;DHT22;4757;59.334;18.034;2024-02-23T06:04:52;4.90;99.90
9437;DHT22;4757;59.334;18.034;2024-02-23T06:07:19;5.00;99.90
9437;DHT22;4757;59.334;18.034;2024-02-23T06:09:48;5.00;99.90
9437;DHT22;4757;59.334;18.034;2024-02-23T06:12:16;5.00;99.90
9437;DHT22;4757;59.334;18.034;2024-02-23T06:14:42;5.10;99.90
9437;DHT22;4757;59.334;18.034;2024-02-23T06:17:10;5.00;99.90
9437;DHT22;4757;59.334;18.034;2024-02-23T06:19:37;5.00;99.90
9437;DHT22;4757;59.334;18.034;2024-02-23T06:22:04;5.10;99.90
9437;DHT22;4757;59.334;18.034;2024-02-23T06:24:31;5.10;99.90
9437;DHT22;4757;59.334;18.034;2024-02-23T06:26:58;5.10;99.90
9437;DHT22;4757;59.334;18.034;2024-02-23T06:29:26;5.10;99.90
9437;DHT22;4757;59.334;18.034;2024-02-23T06:31:53;5.10;99.90
9437;DHT22;4757;59.334;18.034;2024-02-23T06:34:20;5.10;99.90
9437;DHT22;4757;59.334;18.034;2024-02-23T06:36:47;5.10;99.90
9437;DHT22;4757;59.334;18.034;2024-02-23T06:39:15;5.20;99.90
9437;DHT22;4757;59.334;18.034;2024-02-23T06:41:45;5.10;99.90
9437;DHT22;4757;59.334;18.034;2024-02-23T06:44:12;5.20;99.90
9437;DHT22;4757;59.334;18.034;2024-02-23T06:46:39;5.10;99.90
9437;DHT22;4757;59.334;18.034;2024-02-23T06:49:07;5.10;99.90
9437;DHT22;4757;59.334;18.034;2024-02-23T06:51:34;5.10;99.90
9437;DHT22;4757;59.334;18.034;2024-02-23T06:54:02;5.10;99.90
9437;DHT22;4757;59.334;18.034;2024-02-23T06:56:30;5.20;99.90
9437;DHT22;4757;59.334;18.034;2024-02-23T06:58:58;5.10;99.90
9437;DHT22;4757;59.334;18.034;2024-02-23T07:01:25;5.20;99.90
9437;DHT22;4757;59.334;18.034;2024-02-23T07:03:52;5.20;99.90
9437;DHT22;4757;59.334;18.034;2024-02-23T07:06:19;5.10;99.90
9437;DHT22;4757;59.334;18.034;2024-02-23T07:08:46;5.10;99.90
9437;DHT22;4757;59.334;18.034;2024-02-23T07:11:13;5.20;99.90
9437;DHT22;4757;59.334;18.034;2024-02-23T07:13:43;5.20;99.90
9437;DHT22;4757;59.334;18.034;2024-02-23T07:16:11;5.20;99.90
9437;DHT22;4757;59.334;18.034;2024-02-23T07:18:40;5.20;99.90
9437;DHT22;4757;59.334;18.034;2024-02-23T07:21:08;5.30;99.90
9437;DHT22;4757;59.334;18.034;2024-02-23T07:23:35;5.20;99.90
9437;DHT22;4757;59.334;18.034;2024-02-23T07:26:02;5.20;99.90
9437;DHT22;4757;59.334;18.034;2024-02-23T07:28:29;5.20;99.90
9437;DHT22;4757;59.334;18.034;2024-02-23T07:31:01;5.20;99.90
9437;DHT22;4757;59.334;18.034;2024-02-23T07:33:28;5.20;99.90
9437;DHT22;4757;59.334;18.034;2024-02-23T07:35:55;5.20;99.90
9437;DHT22;4757;59.334;18.034;2024-02-23T07:38:22;5.20;99.90
9437;DHT22;4757;59.334;18.034;2024-02-23T07:40:49;5.20;99.90
9437;DHT22;4757;59.334;18.034;2024-02-23T07:43:16;5.10;99.90
9437;DHT22;4757;59.334;18.034;2024-02-23T07:45:44;5.10;99.90
9437;DHT22;4757;59.334;18.034;2024-02-23T07:48:11;5.10;99.90
9437;DHT22;4757;59.334;18.034;2024-02-23T07:50:38;5.20;99.90
9437;DHT22;4757;59.334;18.034;2024-02-23T07:53:05;5.20;99.90
9437;DHT22;4757;59.334;18.034;2024-02-23T07:55:32;5.20;99.90
9437;DHT22;4757;59.334;18.034;2024-02-23T07:58:00;5.20;99.90
9437;DHT22;4757;59.334;18.034;2024-02-23T08:00:28;5.20;99.90
9437;DHT22;4757;59.334;18.034;2024-02-23T08:02:56;5.10;99.90
9437;DHT22;4757;59.334;18.034;2024-02-23T08:05:27;5.20;99.90
9437;DHT22;4757;59.334;18.034;2024-02-23T08:07:54;5.20;99.90
9437;DHT22;4757;59.334;18.034;2024-02-23T08:10:22;5.20;99.90
9437;DHT22;4757;59.334;18.034;2024-02-23T08:12:50;5.10;99.90
9437;DHT22;4757;59.334;18.034;2024-02-23T08:15:17;5.10;99.90
9437;DHT22;4757;59.334;18.034;2024-02-23T08:17:44;5.10;99.90
9437;DHT22;4757;59.334;18.034;2024-02-23T08:20:11;5.20;99.90
9437;DHT22;4757;59.334;18.034;2024-02-23T08:22:39;5.20;99.90
9437;DHT22;4757;59.334;18.034;2024-02-23T08:25:07;5.10;99.90
9437;DHT22;4757;59.334;18.034;2024-02-23T08:27:35;5.20;99.90
9437;DHT22;4757;59.334;18.034;2024-02-23T08:30:03;5.20;99.90
9437;DHT22;4757;59.334;18.034;2024-02-23T08:32:30;5.20;99.90
9437;DHT22;4757;59.334;18.034;2024-02-23T08:34:57;5.20;99.90
9437;DHT22;4757;59.334;18.034;2024-02-23T08:37:26;5.20;99.90
9437;DHT22;4757;59.334;18.034;2024-02-23T08:39:54;5.30;99.90
9437;DHT22;4757;59.334;18.034;2024-02-23T08:42:21;5.30;99.90
9437;DHT22;4757;59.334;18.034;2024-02-23T08:44:48;5.30;99.90
9437;DHT22;4757;59.334;18.034;2024-02-23T08:47:15;5.40;99.90
9437;DHT22;4757;59.334;18.034;2024-02-23T08:49:42;5.40;99.90
9437;DHT22;4757;59.334;18.034;2024-02-23T08:52:09;5.50;99.90
9437;DHT22;4757;59.334;18.034;2024-02-23T08:54:36;5.50;99.90
9437;DHT22;4757;59.334;18.034;2024-02-23T08:57:04;5.50;99.90
9437;DHT22;4757;59.334;18.034;2024-02-23T08:59:31;5.40;99.90
9437;DHT22;4757;59.334;18.034;2024-02-23T09:01:58;5.40;99.90
9437;DHT22;4757;59.334;18.034;2024-02-23T09:04:26;5.50;99.90
9437;DHT22;4757;59.334;18.034;2024-02-23T09:06:53;5.50;99.90
9437;DHT22;4757;59.334;18.034;2024-02-23T09:09:20;5.50;99.90
9437;DHT22;4757;59.334;18.034;2024-02-23T09:11:49;5.60;99.90
9437;DHT22;4757;59.334;18.034;2024-02-23T09:14:16;5.50;99.90
9437;DHT22;4757;59.334;18.034;2024-02-23T09:16:43;5.50;99.90
9437;DHT22;4757;59.334;18.034;2024-02-23T09:19:11;5.50;99.90
9437;DHT22;4757;59.334;18.034;2024-02-23T09:21:39;5.60;99.90
9437;DHT22;4757;59.334;18.034;2024-02-23T09:24:06;5.60;99.90
9437;DHT22;4757;59.334;18.034;2024-02-23T09:26:33;5.50;99.90
9437;DHT22;4757;59.334;18.034;2024-02-23T09:29:00;5.50;99.90
9437;DHT22;4757;59.334;18.034;2024-02-23T09:31:27;5.60;99.90
9437;DHT22;4757;59.334;18.034;2024-02-23T09:33:55;5.60;99.90
9437;DHT22;4757;59.334;18.034;2024-02-23T09:36:23;5.60;99.90
9437;DHT22;4757;59.334;18.034;2024-02-23T09:38:51;5.80;99.90
9437;DHT22;4757;59.334;18.034;2024-02-23T09:41:22;5.90;99.90
9437;DHT22;4757;59.334;18.034;2024-02-23T09:43:50;6.00;99.90
9437;DHT22;4757;59.334;18.034;2024-02-23T09:46:18;6.10;99.90
9437;DHT22;4757;59.334;18.034;2024-02-23T09:48:47;6.20;99.90
9437;DHT22;4757;59.334;18.034;2024-02-23T09:51:15;6.40;99.90
9437;DHT22;4757;59.334;18.034;2024-02-23T09:53:43;6.80;99.90
9437;DHT22;4757;59.334;18.034;2024-02-23T09:56:10;6.80;99.90
9437;DHT22;4757;59.334;18.034;2024-02-23T09:58:39;6.90;99.90
9437;DHT22;4757;59.334;18.034;2024-02-23T10:01:08;7.00;99.90
9437;DHT22;4757;59.334;18.034;2024-02-23T10:03:39;7.00;99.90
9437;DHT22;4757;59.334;18.034;2024-02-23T10:06:06;7.10;99.90
9437;DHT22;4757;59.334;18.034;2024-02-23T10:08:33;7.20;99.90
9437;DHT22;4757;59.334;18.034;2024-02-23T10:11:00;7.30;99.90
9437;DHT22;4757;59.334;18.034;2024-02-23T10:13:29;7.40;99.90
9437;DHT22;4757;59.334;18.034;2024-02-23T10:15:56;7.30;99.90
9437;DHT22;4757;59.334;18.034;2024-02-23T10:18:40;7.50;99.90
9437;DHT22;4757;59.334;18.034;2024-02-23T10:21:07;7.50;99.90
9437;DHT22;4757;59.334;18.034;2024-02-23T10:23:34;7.70;99.90
9437;DHT22;4757;59.334;18.034;2024-02-23T10:26:07;7.70;99.90
9437;DHT22;4757;59.334;18.034;2024-02-23T10:28:37;7.70;99.90
9437;DHT22;4757;59.334;18.034;2024-02-23T10:31:06;7.70;99.90
9437;DHT22;4757;59.334;18.034;2024-02-23T10:33:38;7.70;99.90
9437;DHT22;4757;59.334;18.034;2024-02-23T10:36:07;7.70;99.90
9437;DHT22;4757;59.334;18.034;2024-02-23T10:38:38;7.80;99.90
9437;DHT22;4757;59.334;18.034;2024-02-23T10:41:06;7.70;99.90
9437;DHT22;4757;59.334;18.034;2024-02-23T10:43:47;7.80;99.90
9437;DHT22;4757;59.334;18.034;2024-02-23T10:46:15;7.70;99.90
9437;DHT22;4757;59.334;18.034;2024-02-23T10:48:44;7.60;99.90
9437;DHT22;4757;59.334;18.034;2024-02-23T10:51:14;7.60;99.90
9437;DHT22;4757;59.334;18.034;2024-02-23T10:53:46;7.50;99.90
9437;DHT22;4757;59.334;18.034;2024-02-23T10:56:15;7.50;99.90
9437;DHT22;4757;59.334;18.034;2024-02-23T10:58:42;7.40;99.90
9437;DHT22;4757;59.334;18.034;2024-02-23T11:01:10;7.30;99.90
9437;DHT22;4757;59.334;18.034;2024-02-23T11:03:41;7.30;99.90
9437;DHT22;4757;59.334;18.034;2024-02-23T11:06:09;7.30;99.90
9437;DHT22;4757;59.334;18.034;2024-02-23T11:08:36;7.10;99.90
9437;DHT22;4757;59.334;18.034;2024-02-23T11:11:11;7.10;99.90
9437;DHT22;4757;59.334;18.034;2024-02-23T11:13:39;7.10;99.90
9437;DHT22;4757;59.334;18.034;2024-02-23T11:16:08;7.10;99.90
9437;DHT22;4757;59.334;18.034;2024-02-23T11:18:41;7.00;99.90
9437;DHT22;4757;59.334;18.034;2024-02-23T11:21:10;6.90;99.90
9437;DHT22;4757;59.334;18.034;2024-02-23T11:23:42;6.80;99.90
9437;DHT22;4757;59.334;18.034;2024-02-23T11:26:11;6.70;99.90
9437;DHT22;4757;59.334;18.034;2024-02-23T11:28:48;6.80;99.90
9437;DHT22;4757;59.334;18.034;2024-02-23T11:31:20;6.80;99.90
9437;DHT22;4757;59.334;18.034;2024-02-23T11:33:55;6.60;99.90
9437;DHT22;4757;59.334;18.034;2024-02-23T11:36:32;6.50;99.90
9437;DHT22;4757;59.334;18.034;2024-02-23T11:39:01;6.60;99.90
9437;DHT22;4757;59.334;18.034;2024-02-23T11:41:29;6.50;99.90
9437;DHT22;4757;59.334;18.034;2024-02-23T11:43:56;6.40;99.90
9437;DHT22;4757;59.334;18.034;2024-02-23T11:46:25;6.50;99.90
9437;DHT22;4757;59.334;18.034;2024-02-23T11:48:52;6.60;99.90
9437;DHT22;4757;59.334;18.034;2024-02-23T11:51:23;6.70;99.90
9437;DHT22;4757;59.334;18.034;2024-02-23T11:53:51;6.70;99.90
9437;DHT22;4757;59.334;18.034;2024-02-23T11:56:19;6.80;99.90
9437;DHT22;4757;59.334;18.034;2024-02-23T11:58:47;6.80;99.90
9437;DHT22;4757;59.334;18.034;2024-02-23T12:01:14;7.00;99.90
9437;DHT22;4757;59.334;18.034;2024-02-23T12:03:41;7.10;99.90
9437;DHT22;4757;59.334;18.034;2024-02-23T12:06:11;7.10;99.90
9437;DHT22;4757;59.334;18.034;2024-02-23T12:08:40;7.20;99.90
9437;DHT22;4757;59.334;18.034;2024-02-23T12:11:09;7.20;99.90
9437;DHT22;4757;59.334;18.034;2024-02-23T12:13:36;7.20;99.90
9437;DHT22;4757;59.334;18.034;2024-02-23T12:16:04;7.20;99.90
9437;DHT22;4757;59.334;18.034;2024-02-23T12:18:35;7.10;99.90
9437;DHT22;4757;59.334;18.034;2024-02-23T12:21:06;7.20;99.90
9437;DHT22;4757;59.334;18.034;2024-02-23T12:23:44;7.20;99.90
9437;DHT22;4757;59.334;18.034;2024-02-23T12:26:13;7.20;99.90
9437;DHT22;4757;59.334;18.034;2024-02-23T12:28:41;7.30;99.90
9437;DHT22;4757;59.334;18.034;2024-02-23T12:31:09;7.20;99.90
9437;DHT22;4757;59.334;18.034;2024-02-23T12:33:37;7.30;99.90
9437;DHT22;4757;59.334;18.034;2024-02-23T12:36:08;7.20;99.90
9437;DHT22;4757;59.334;18.034;2024-02-23T12:38:37;7.30;99.90
9437;DHT22;4757;59.334;18.034;2024-02-23T12:41:04;7.30;99.90
9437;DHT22;4757;59.334;18.034;2024-02-23T12:43:32;7.40;99.90
9437;DHT22;4757;59.334;18.034;2024-02-23T12:45:59;7.40;99.90
9437;DHT22;4757;59.334;18.034;2024-02-23T12:48:28;7.40;99.90
9437;DHT22;4757;59.334;18.034;2024-02-23T12:50:55;7.50;99.90
9437;DHT22;4757;59.334;18.034;2024-02-23T12:53:33;7.50;99.90
9437;DHT22;4757;59.334;18.034;2024-02-23T12:56:11;7.60;99.90
9437;DHT22;4757;59.334;18.034;2024-02-23T12:58:41;7.60;99.90
9437;DHT22;4757;59.334;18.034;2024-02-23T13:01:10;8.20;99.90
9437;DHT22;4757;59.334;18.034;2024-02-23T13:03:38;9.30;99.90
9437;DHT22;4757;59.334;18.034;2024-02-23T13:06:07;10.40;99.90
9437;DHT22;4757;59.334;18.034;2024-02-23T13:08:34;10.40;99.90
9437;DHT22;4757;59.334;18.034;2024-02-23T13:11:02;10.40;99.90
9437;DHT22;4757;59.334;18.034;2024-02-23T13:13:30;10.20;99.90
9437;DHT22;4757;59.334;18.034;2024-02-23T13:15:58;9.90;99.90
9437;DHT22;4757;59.334;18.034;2024-02-23T13:18:25;9.50;99.90
9437;DHT22;4757;59.334;18.034;2024-02-23T13:20:52;8.90;99.90
9437;DHT22;4757;59.334;18.034;2024-02-23T13:23:19;8.50;99.90
9437;DHT22;4757;59.334;18.034;2024-02-23T13:25:46;8.30;99.90
9437;DHT22;4757;59.334;18.034;2024-02-23T13:28:13;8.00;99.90
9437;DHT22;4757;59.334;18.034;2024-02-23T13:30:40;7.80;99.90
9437;DHT22;4757;59.334;18.034;2024-02-23T13:33:07;7.70;99.90
9437;DHT22;4757;59.334;18.034;2024-02-23T13:35:35;7.70;99.90
9437;DHT22;4757;59.334;18.034;2024-02-23T13:38:02;7.60;99.90
9437;DHT22;4757;59.334;18.034;2024-02-23T13:40:32;7.50;99.90
9437;DHT22;4757;59.334;18.034;2024-02-23T13:42:59;7.40;99.90
9437;DHT22;4757;59.334;18.034;2024-02-23T13:45:26;7.40;99.90
9437;DHT22;4757;59.334;18.034;2024-02-23T13:47:56;7.40;99.90
9437;DHT22;4757;59.334;18.034;2024-02-23T13:50:24;7.30;99.90
9437;DHT22;4757;59.334;18.034;2024-02-23T13:52:52;7.30;99.90
9437;DHT22;4757;59.334;18.034;2024-02-23T13:55:19;7.20;99.90
9437;DHT22;4757;59.334;18.034;2024-02-23T13:57:49;7.10;99.90
9437;DHT22;4757;59.334;18.034;2024-02-23T14:00:17;7.20;99.90
9437;DHT22;4757;59.334;18.034;2024-02-23T14:02:44;7.10;99.90
9437;DHT22;4757;59.334;18.034;2024-02-23T14:05:15;7.10;99.90
9437;DHT22;4757;59.334;18.034;2024-02-23T14:07:42;7.20;99.90
9437;DHT22;4757;59.334;18.034;2024-02-23T14:10:10;7.10;99.90
9437;DHT22;4757;59.334;18.034;2024-02-23T14:12:37;7.20;99.90
9437;DHT22;4757;59.334;18.034;2024-02-23T14:15:05;7.20;99.90
9437;DHT22;4757;59.334;18.034;2024-02-23T14:17:33;7.30;99.90
9437;DHT22;4757;59.334;18.034;2024-02-23T14:20:02;7.30;99.90
9437;DHT22;4757;59.334;18.034;2024-02-23T14:22:30;7.30;99.90
9437;DHT22;4757;59.334;18.034;2024-02-23T14:24:58;7.20;99.90
9437;DHT22;4757;59.334;18.034;2024-02-23T14:27:26;7.30;99.90
9437;DHT22;4757;59.334;18.034;2024-02-23T14:29:58;7.40;99.90
9437;DHT22;4757;59.334;18.034;2024-02-23T14:32:26;7.30;99.90
9437;DHT22;4757;59.334;18.034;2024-02-23T14:34:53;7.20;99.90
9437;DHT22;4757;59.334;18.034;2024-02-23T14:37:22;7.00;99.90
9437;DHT22;4757;59.334;18.034;2024-02-23T14:39:49;6.90;99.90
9437;DHT22;4757;59.334;18.034;2024-02-23T14:42:16;6.90;99.90
9437;DHT22;4757;59.334;18.034;2024-02-23T14:44:43;7.00;99.90
9437;DHT22;4757;59.334;18.034;2024-02-23T14:47:10;6.90;99.90
9437;DHT22;4757;59.334;18.034;2024-02-23T14:49:39;6.90;99.90
9437;DHT22;4757;59.334;18.034;2024-02-23T14:52:06;6.80;99.90
9437;DHT22;4757;59.334;18.034;2024-02-23T14:54:33;6.80;99.90
9437;DHT22;4757;59.334;18.034;2024-02-23T14:57:00;6.80;99.90
9437;DHT22;4757;59.334;18.034;2024-02-23T14:59:27;6.90;99.90
9437;DHT22;4757;59.334;18.034;2024-02-23T15:01:55;6.90;99.90
9437;DHT22;4757;59.334;18.034;2024-02-23T15:04:25;6.90;99.90
9437;DHT22;4757;59.334;18.034;2024-02-23T15:06:53;6.80;99.90
9437;DHT22;4757;59.334;18.034;2024-02-23T15:09:20;6.80;99.90
9437;DHT22;4757;59.334;18.034;2024-02-23T15:11:47;6.60;99.90
9437;DHT22;4757;59.334;18.034;2024-02-23T15:14:14;7.00;99.90
9437;DHT22;4757;59.334;18.034;2024-02-23T15:16:43;7.00;99.90
9437;DHT22;4757;59.334;18.034;2024-02-23T15:19:11;6.90;99.90
9437;DHT22;4757;59.334;18.034;2024-02-23T15:21:40;6.70;99.90
9437;DHT22;4757;59.334;18.034;2024-02-23T15:24:12;6.70;99.90
9437;DHT22;4757;59.334;18.034;2024-02-23T15:26:41;6.80;99.90
9437;DHT22;4757;59.334;18.034;2024-02-23T15:29:11;6.60;99.90
9437;DHT22;4757;59.334;18.034;2024-02-23T15:31:53;6.60;99.90
9437;DHT22;4757;59.334;18.034;2024-02-23T15:34:21;6.70;99.90
9437;DHT22;4757;59.334;18.034;2024-02-23T15:37:02;6.50;99.90
9437;DHT22;4757;59.334;18.034;2024-02-23T15:39:44;6.50;99.90
9437;DHT22;4757;59.334;18.034;2024-02-23T15:42:12;6.40;99.90
9437;DHT22;4757;59.334;18.034;2024-02-23T15:44:47;6.50;99.90
9437;DHT22;4757;59.334;18.034;2024-02-23T15:47:15;6.20;99.90
9437;DHT22;4757;59.334;18.034;2024-02-23T15:49:43;5.40;99.90
9437;DHT22;4757;59.334;18.034;2024-02-23T15:52:31;6.40;99.90
9437;DHT22;4757;59.334;18.034;2024-02-23T15:55:12;6.30;99.90
9437;DHT22;4757;59.334;18.034;2024-02-23T15:57:40;6.40;99.90
9437;DHT22;4757;59.334;18.034;2024-02-23T16:00:08;6.20;99.90
9437;DHT22;4757;59.334;18.034;2024-02-23T16:02:38;6.10;99.90
9437;DHT22;4757;59.334;18.034;2024-02-23T16:05:07;6.00;99.90
9437;DHT22;4757;59.334;18.034;2024-02-23T16:07:35;6.10;99.90
9437;DHT22;4757;59.334;18.034;2024-02-23T16:10:12;6.00;99.90